Terminal Aerodrome Forecast
Issued by NWS

Home | Current Version | Previous Version | Text Only | Print | Product List | Glossary On
Versions: 1 2 3 4 5 6 7 8 9 10 11 12 13 14
000
FTUS42 TJSJ 051100
TAFJBQ
TAF
TJBQ 051132Z 0512/0612 09014KT P6SM FEW022 SCT050
     FM051450 09015G26KT P6SM SCT030
     FM052330 11010KT P6SM FEW030
      AMD NOT SKED=

USA.gov is the U.S. government's official web portal to all federal, state and local government web resources and services.